Time;durP1;ratioP1;P1;durP2;ratioP2;P2;SDS_P1;SDS_P2;PMS_P1;PMS_P2;Temp;Humidity;BMP_temperature;BMP_pressure;BME280_temperature;BME280_humidity;BME280_pressure;Samples;Min_cycle;Max_cycle;Signal;HPM_P1;HPM_P2
2023/11/21 00:00:34;;;;;;;;;;;11.30;61.00;;;6.70;97.28;95052.06;4990558;28;19918;-50
2023/11/21 00:03:00;;;;;;;;;;;11.30;61.00;;;6.67;97.73;95048.06;4991348;28;19916;-54
2023/11/21 00:05:26;;;;;;;;;;;11.30;61.10;;;6.64;98.70;95042.50;4991956;28;19917;-54
2023/11/21 00:07:51;;;;;;;;;;;11.30;61.10;;;6.63;98.93;95040.91;4990847;28;19910;-52
2023/11/21 00:10:17;;;;;;;;;;;11.30;61.20;;;6.67;99.86;95039.34;4988343;28;20011;-55
2023/11/21 00:12:43;;;;;;;;;;;11.20;61.20;;;6.62;100.00;95040.13;4986645;28;19917;-52
2023/11/21 00:15:13;;;;;;;;;;;11.20;61.30;;;6.64;100.00;95042.50;4991648;28;19964;-51
2023/11/21 00:17:39;;;;;;;;;;;11.20;61.40;;;6.62;99.75;95041.97;4991738;28;20334;-52
2023/11/21 00:20:07;;;;;;;;;;;11.20;61.60;;;6.62;99.15;95031.38;4988610;28;20004;-50
2023/11/21 00:22:35;;;;;;;;;;;11.20;61.60;;;6.66;98.58;95037.75;4992039;28;19909;-53
2023/11/21 00:25:03;;;;;;;;;;;11.20;61.70;;;6.67;98.74;95031.41;4990932;28;19920;-52
2023/11/21 00:27:30;;;;;;;;;;;11.20;61.80;;;6.68;98.81;95036.47;4991758;28;19910;-55
2023/11/21 00:29:56;;;;;;;;;;;11.20;61.80;;;6.68;99.30;95036.47;4990234;28;19992;-52
2023/11/21 00:32:21;;;;;;;;;;;11.20;62.60;;;6.68;98.81;95039.09;4991484;28;20003;-49
2023/11/21 00:34:47;;;;;;;;;;;11.20;61.90;;;6.66;99.03;95037.75;4991713;28;19949;-51
2023/11/21 00:37:14;;;;;;;;;;;11.20;61.90;;;6.67;98.80;95037.50;4990995;28;20361;-51
2023/11/21 00:39:40;;;;;;;;;;;11.20;61.90;;;6.65;97.66;95036.16;4991054;28;19913;-52
2023/11/21 00:42:06;;;;;;;;;;;11.20;61.90;;;6.67;96.92;95024.25;4990660;28;20371;-50
2023/11/21 00:44:34;;;;;;;;;;;11.20;62.00;;;6.70;97.30;95029.03;4991815;28;19910;-54
2023/11/21 00:47:00;;;;;;;;;;;11.20;62.00;;;6.73;97.68;95025.88;4993661;28;19931;-53
2023/11/21 00:49:25;;;;;;;;;;;11.30;62.10;;;6.74;97.68;95024.06;4995448;28;20390;-52
2023/11/21 00:51:51;;;;;;;;;;;11.30;62.00;;;6.72;96.90;95028.81;4995071;28;19910;-55
2023/11/21 00:54:17;;;;;;;;;;;11.30;62.00;;;6.73;96.80;95015.31;4994650;28;20056;-50
2023/11/21 00:56:43;;;;;;;;;;;11.30;62.00;;;6.76;96.70;95018.50;4994846;28;20303;-50
2023/11/21 00:59:10;;;;;;;;;;;11.30;62.00;;;6.78;96.50;95011.13;4994635;28;19910;-55
2023/11/21 01:01:37;;;;;;;;;;;11.30;62.00;;;6.80;96.84;95016.94;4991581;28;20494;-50
2023/11/21 01:04:03;;;;;;;;;;;11.30;62.00;;;6.80;96.15;95019.59;4989257;28;20300;-54
2023/11/21 01:06:29;;;;;;;;;;;11.30;62.00;;;6.82;96.07;95022.78;4994448;28;19913;-50
2023/11/21 01:08:55;;;;;;;;;;;11.30;62.00;;;6.82;96.94;95028.06;4994124;28;20009;-50
2023/11/21 01:11:21;;;;;;;;;;;11.30;62.00;;;6.81;95.98;95019.34;5016363;23;20350;-54
2023/11/21 01:13:47;;;;;;;;;;;11.30;62.00;;;6.82;96.44;95025.44;5005267;28;20264;-55
2023/11/21 01:16:13;;;;;;;;;;;11.30;62.00;;;6.83;96.41;95013.78;5008629;28;20359;-47
2023/11/21 01:18:39;;;;;;;;;;;11.30;62.00;;;6.82;96.99;95022.78;5005584;28;19916;-48
2023/11/21 01:21:05;;;;;;;;;;;11.30;62.00;;;6.79;97.30;95021.44;4993851;28;19914;-49
2023/11/21 01:23:31;;;;;;;;;;;11.40;62.00;;;6.80;97.09;95019.59;4981099;28;19913;-48
2023/11/21 01:25:57;;;;;;;;;;;11.30;62.00;;;6.79;97.09;95012.69;4986836;28;19917;-50
2023/11/21 01:28:23;;;;;;;;;;;11.40;62.00;;;6.77;96.62;95010.31;4979793;28;20368;-48
2023/11/21 01:30:49;;;;;;;;;;;11.40;62.00;;;6.78;97.84;95011.91;4992178;28;19949;-47
2023/11/21 01:33:15;;;;;;;;;;;11.40;62.10;;;6.78;98.89;95016.41;4989289;28;19977;-47
2023/11/21 01:35:42;;;;;;;;;;;11.30;62.10;;;6.77;98.97;95012.16;4978527;28;19956;-53
2023/11/21 01:38:08;;;;;;;;;;;11.30;62.10;;;6.73;100.00;95007.34;4978442;28;19948;-47
2023/11/21 01:40:35;;;;;;;;;;;11.30;62.10;;;6.70;100.00;95007.88;4987416;28;20006;-47
2023/11/21 01:43:03;;;;;;;;;;;11.30;62.20;;;6.66;100.00;95009.44;4974314;28;19913;-47
2023/11/21 01:45:33;;;;;;;;;;;11.30;62.20;;;6.63;100.00;95009.16;4985714;28;19910;-48
2023/11/21 01:48:00;;;;;;;;;;;11.30;62.20;;;6.58;100.00;95009.09;4985405;28;19964;-51
2023/11/21 01:50:28;;;;;;;;;;;11.30;62.20;;;6.55;100.00;95012.25;4986688;28;20000;-47
2023/11/21 01:52:54;;;;;;;;;;;11.30;62.30;;;6.51;100.00;95005.88;4974283;28;19913;-47
2023/11/21 01:55:20;;;;;;;;;;;11.30;62.30;;;6.49;100.00;94998.19;4974866;28;19909;-50
2023/11/21 01:57:48;;;;;;;;;;;11.30;62.40;;;6.46;100.00;95002.16;4975994;28;19986;-47
2023/11/21 02:00:17;;;;;;;;;;;11.30;62.40;;;6.44;100.00;95001.59;4975022;28;19925;-47
2023/11/21 02:02:47;;;;;;;;;;;11.20;62.40;;;6.43;100.00;95002.66;4980554;28;19910;-47
2023/11/21 02:05:19;;;;;;;;;;;11.20;62.40;;;6.40;100.00;94992.56;4990479;28;19924;-47
2023/11/21 02:07:49;;;;;;;;;;;11.20;62.40;;;6.39;100.00;94993.63;4971795;28;19910;-47
2023/11/21 02:10:16;;;;;;;;;;;11.20;62.60;;;6.35;100.00;95000.44;4969683;28;19909;-47
2023/11/21 02:12:42;;;;;;;;;;;11.10;62.60;;;6.33;100.00;94999.09;4988607;28;19926;-47
2023/11/21 02:15:26;;;;;;;;;;;11.10;62.60;;;6.23;100.00;95005.09;4978806;28;19941;-48
2023/11/21 02:17:53;;;;;;;;;;;11.10;62.70;;;6.14;100.00;95012.72;4987510;28;19921;-46
2023/11/21 02:20:22;;;;;;;;;;;11.00;62.70;;;6.07;100.00;95000.72;4971454;28;19917;-51
2023/11/21 02:22:57;;;;;;;;;;;11.00;62.70;;;6.08;100.00;95008.44;4986825;28;20341;-46
2023/11/21 02:25:28;;;;;;;;;;;11.00;62.90;;;6.07;100.00;95001.53;4975614;28;19909;-51
2023/11/21 02:27:55;;;;;;;;;;;10.90;62.90;;;6.08;100.00;95007.59;4978996;28;19917;-52
2023/11/21 02:30:27;;;;;;;;;;;10.90;63.00;;;6.11;100.00;95009.75;4986496;28;19913;-56
2023/11/21 02:32:54;;;;;;;;;;;10.90;63.10;;;6.09;100.00;95010.00;4977559;28;19917;-52
2023/11/21 02:35:21;;;;;;;;;;;10.90;63.20;;;6.09;100.00;95011.88;4986572;28;19914;-48
2023/11/21 02:37:50;;;;;;;;;;;10.80;63.30;;;6.02;100.00;95010.22;4987863;28;19910;-47
2023/11/21 02:40:17;;;;;;;;;;;10.80;63.30;;;6.01;100.00;95013.09;4981227;28;19917;-47
2023/11/21 02:42:44;;;;;;;;;;;10.70;63.40;;;6.01;100.00;95013.09;4981511;28;19914;-46
2023/11/21 02:45:14;;;;;;;;;;;10.70;63.40;;;5.98;100.00;95017.03;4975429;28;19948;-47
2023/11/21 02:47:40;;;;;;;;;;;10.70;63.50;;;6.01;100.00;95011.25;4984058;28;19949;-51
2023/11/21 02:50:10;;;;;;;;;;;10.70;63.60;;;6.01;100.00;95013.88;4984002;28;20358;-48
2023/11/21 02:52:36;;;;;;;;;;;10.60;63.70;;;5.99;100.00;95012.56;4985347;28;19963;-48
2023/11/21 02:55:07;;;;;;;;;;;10.60;63.80;;;5.96;100.00;95011.22;4968283;28;19913;-47
2023/11/21 02:57:33;;;;;;;;;;;10.60;63.90;;;5.95;100.00;95006.16;4986253;28;19909;-50
2023/11/21 03:00:02;;;;;;;;;;;10.50;64.00;;;5.95;100.00;95011.44;4977106;28;19913;-51
2023/11/21 03:02:28;;;;;;;;;;;10.50;64.10;;;5.90;100.00;95006.09;4989059;28;19914;-47
2023/11/21 03:04:54;;;;;;;;;;;10.50;64.10;;;5.91;100.00;95002.38;4977853;28;20748;-50
2023/11/21 03:07:20;;;;;;;;;;;10.40;64.20;;;5.85;100.00;95011.31;4987231;28;19917;-46
2023/11/21 03:09:46;;;;;;;;;;;10.40;64.30;;;5.83;100.00;95002.81;4977025;28;20426;-50
2023/11/21 03:12:12;;;;;;;;;;;10.40;64.30;;;5.83;100.00;95010.75;4985837;28;19917;-50
2023/11/21 03:14:41;;;;;;;;;;;10.30;64.50;;;5.75;100.00;94993.50;4988670;28;19949;-48
2023/11/21 03:17:07;;;;;;;;;;;10.30;64.50;;;5.76;100.00;94990.59;4980888;28;20008;-48
2023/11/21 03:19:33;;;;;;;;;;;10.30;64.60;;;5.71;100.00;94987.91;4983616;28;20024;-48
2023/11/21 03:21:59;;;;;;;;;;;10.20;64.70;;;5.70;100.00;94988.16;4981346;28;20464;-47
2023/11/21 03:24:26;;;;;;;;;;;10.20;64.90;;;5.74;100.00;94984.78;4982989;28;20008;-46
2023/11/21 03:26:52;;;;;;;;;;;10.20;64.90;;;5.78;100.00;94988.53;4967478;28;19913;-48
2023/11/21 03:29:18;;;;;;;;;;;10.20;65.00;;;5.77;100.00;94986.13;4977512;28;19941;-47
2023/11/21 03:31:44;;;;;;;;;;;10.10;65.00;;;5.77;100.00;94984.28;4984041;28;19932;-47
2023/11/21 03:34:24;;;;;;;;;;;10.20;65.10;;;5.76;100.00;94987.16;4977815;28;20008;-53
2023/11/21 03:36:49;;;;;;;;;;;10.10;65.10;;;5.74;100.00;94992.72;4962797;28;20335;-47
2023/11/21 03:39:15;;;;;;;;;;;10.10;65.20;;;5.74;100.00;94991.91;4977208;28;20370;-47
2023/11/21 03:41:41;;;;;;;;;;;10.10;65.30;;;5.74;100.00;94992.72;4987338;28;19921;-53
2023/11/21 03:44:07;;;;;;;;;;;10.20;65.30;;;5.74;100.00;94999.84;4976267;28;19910;-48
2023/11/21 03:46:32;;;;;;;;;;;10.10;65.30;;;5.75;100.00;94998.78;4986744;28;19909;-46
2023/11/21 03:48:58;;;;;;;;;;;10.20;65.40;;;5.71;100.00;94995.84;4983256;28;19963;-49
2023/11/21 03:51:24;;;;;;;;;;;10.20;65.40;;;5.69;100.00;94995.28;4986293;28;19916;-51
2023/11/21 03:53:50;;;;;;;;;;;10.20;65.40;;;5.66;100.00;95009.00;4978355;28;20376;-46
2023/11/21 03:56:15;;;;;;;;;;;10.20;65.30;;;5.66;100.00;95000.28;4981888;28;19991;-47
2023/11/21 03:58:41;;;;;;;;;;;10.20;65.40;;;5.60;100.00;95004.69;4980613;28;19925;-47
2023/11/21 04:01:07;;;;;;;;;;;10.20;65.40;;;5.62;100.00;95007.09;4977405;28;19921;-50
2023/11/21 04:03:33;;;;;;;;;;;10.20;65.40;;;5.62;100.00;95002.63;4982157;28;20364;-50
2023/11/21 04:05:59;;;;;;;;;;;10.20;65.50;;;5.62;100.00;95010.53;4973443;28;19909;-56
2023/11/21 04:08:25;;;;;;;;;;;10.20;65.50;;;5.63;100.00;95006.06;4985874;28;19909;-48
2023/11/21 04:10:53;;;;;;;;;;;10.20;65.50;;;5.60;100.00;95015.25;4976530;28;20378;-47
2023/11/21 04:13:19;;;;;;;;;;;10.20;65.50;;;5.63;100.00;95017.41;4970663;28;19932;-49
2023/11/21 04:15:45;;;;;;;;;;;10.20;65.50;;;5.62;100.00;95010.53;4988066;28;19910;-47
2023/11/21 04:18:10;;;;;;;;;;;10.20;65.60;;;5.64;100.00;95007.63;4976924;28;20008;-51
2023/11/21 04:20:36;;;;;;;;;;;10.30;65.70;;;5.66;100.00;95010.84;4988691;28;19920;-47
2023/11/21 04:23:03;;;;;;;;;;;10.30;65.60;;;5.64;100.00;95002.34;4990218;28;19914;-48
2023/11/21 04:25:29;;;;;;;;;;;10.20;65.60;;;5.62;100.00;95005.25;4980318;28;19909;-49
2023/11/21 04:27:54;;;;;;;;;;;10.30;65.70;;;5.62;100.00;94999.97;4990148;28;20252;-48
2023/11/21 04:30:20;;;;;;;;;;;10.20;65.70;;;5.56;100.00;94999.13;4983333;28;20538;-47
2023/11/21 04:32:46;;;;;;;;;;;10.20;65.80;;;5.54;100.00;95000.41;4983058;28;19914;-47
2023/11/21 04:35:12;;;;;;;;;;;10.20;65.80;;;5.54;100.00;94998.56;4986234;28;19910;-48
2023/11/21 04:37:38;;;;;;;;;;;10.20;65.90;;;5.58;100.00;95001.53;4989265;28;20376;-49
2023/11/21 04:40:06;;;;;;;;;;;10.20;66.00;;;5.62;100.00;95001.81;4977292;28;19932;-49
2023/11/21 04:42:36;;;;;;;;;;;10.10;66.10;;;5.64;100.00;95015.56;4987668;28;19913;-49
2023/11/21 04:45:09;;;;;;;;;;;10.20;66.20;;;5.60;100.00;95015.25;4974648;28;20295;-50
2023/11/21 04:47:36;;;;;;;;;;;10.10;66.20;;;5.57;100.00;95010.47;4988036;28;19941;-47
2023/11/21 04:50:04;;;;;;;;;;;10.10;66.30;;;5.60;100.00;95017.91;4987950;28;20272;-47
2023/11/21 04:52:30;;;;;;;;;;;10.10;66.30;;;5.54;100.00;95009.13;4976328;28;19991;-50
2023/11/21 04:54:58;;;;;;;;;;;10.10;66.30;;;5.57;100.00;95015.75;4969895;28;19968;-51
2023/11/21 04:57:24;;;;;;;;;;;10.10;66.40;;;5.61;100.00;95011.59;4979079;28;19941;-47
2023/11/21 04:59:50;;;;;;;;;;;10.10;66.40;;;5.59;100.00;95010.25;4989422;28;19910;-51
2023/11/21 05:02:16;;;;;;;;;;;10.10;66.40;;;5.58;100.00;95014.72;4978874;28;19914;-47
2023/11/21 05:04:42;;;;;;;;;;;10.20;66.50;;;5.59;100.00;95011.03;4988774;28;19917;-48
2023/11/21 05:07:08;;;;;;;;;;;10.10;66.50;;;5.62;100.00;95009.75;4981758;28;20372;-49
2023/11/21 05:09:35;;;;;;;;;;;10.10;66.50;;;5.64;100.00;95011.09;4974136;28;19913;-47
2023/11/21 05:12:01;;;;;;;;;;;10.10;66.60;;;5.64;100.00;95008.47;4981838;28;19922;-52
2023/11/21 05:14:27;;;;;;;;;;;10.10;66.60;;;5.68;100.00;95006.13;4975989;28;19913;-49
2023/11/21 05:16:53;;;;;;;;;;;10.20;66.70;;;5.67;100.00;95018.53;4984951;28;19917;-48
2023/11/21 05:19:19;;;;;;;;;;;10.20;66.70;;;5.67;100.00;95012.44;4979914;28;19991;-52
2023/11/21 05:21:46;;;;;;;;;;;10.20;66.70;;;5.64;100.00;95013.75;4981437;28;19921;-52
2023/11/21 05:24:12;;;;;;;;;;;10.20;66.70;;;5.67;100.00;95015.91;4991688;28;20412;-48
2023/11/21 05:26:38;;;;;;;;;;;10.20;66.80;;;5.72;100.00;95015.16;4987887;28;19999;-49
2023/11/21 05:29:04;;;;;;;;;;;10.20;66.80;;;5.69;100.00;95019.06;4988082;28;19956;-47
2023/11/21 05:31:30;;;;;;;;;;;10.20;66.70;;;5.71;100.00;95021.47;4983289;28;20359;-51
2023/11/21 05:33:56;;;;;;;;;;;10.20;66.80;;;5.74;100.00;95031.56;4989878;28;20036;-50
2023/11/21 05:36:22;;;;;;;;;;;10.30;66.80;;;5.73;100.00;95033.38;4980391;28;19917;-54
2023/11/21 05:38:47;;;;;;;;;;;10.30;66.80;;;5.74;100.00;95032.34;4979512;28;19963;-50
2023/11/21 05:41:13;;;;;;;;;;;10.30;66.80;;;5.72;100.00;95031.78;4988958;28;20052;-48
2023/11/21 05:43:40;;;;;;;;;;;10.30;66.80;;;5.76;100.00;95024.16;4979467;28;19933;-48
2023/11/21 05:46:07;;;;;;;;;;;10.30;66.80;;;5.76;100.00;95040.03;4971336;28;20265;-48
2023/11/21 05:48:33;;;;;;;;;;;10.30;66.70;;;5.79;100.00;95037.69;4982793;28;19921;-49
2023/11/21 05:50:59;;;;;;;;;;;10.30;66.70;;;5.83;100.00;95039.81;4988958;28;20327;-47
2023/11/21 05:53:25;;;;;;;;;;;10.40;66.80;;;5.83;100.00;95039.81;4983519;28;19963;-48
2023/11/21 05:55:51;;;;;;;;;;;10.40;66.80;;;5.80;100.00;95041.94;4979831;28;20292;-48
2023/11/21 05:58:16;;;;;;;;;;;10.40;66.70;;;5.78;100.00;95043.22;4981980;28;19914;-49
2023/11/21 06:00:42;;;;;;;;;;;10.40;66.70;;;5.71;100.00;95046.06;4985563;28;19920;-48
2023/11/21 06:03:08;;;;;;;;;;;10.40;66.70;;;5.75;100.00;95046.38;4979395;28;19910;-50
2023/11/21 06:05:34;;;;;;;;;;;10.40;66.70;;;5.77;100.00;95055.66;4987664;28;20033;-50
2023/11/21 06:08:00;;;;;;;;;;;10.40;66.70;;;5.81;100.00;95045.38;4983393;28;19914;-48
2023/11/21 06:10:28;;;;;;;;;;;10.40;66.70;;;5.82;100.00;95052.25;4978050;28;19910;-51
2023/11/21 06:12:54;;;;;;;;;;;10.40;66.70;;;5.74;100.00;95047.41;4987655;28;19918;-49
2023/11/21 06:15:22;;;;;;;;;;;10.40;66.70;;;5.78;100.00;95053.81;4993081;28;19909;-49
2023/11/21 06:17:52;;;;;;;;;;;10.40;66.70;;;5.77;100.00;95055.66;4969725;28;19919;-49
2023/11/21 06:20:19;;;;;;;;;;;10.40;66.80;;;5.78;100.00;95061.72;4973838;28;20365;-48
2023/11/21 06:22:51;;;;;;;;;;;10.40;66.70;;;5.74;100.00;95061.44;4975144;28;19910;-49
2023/11/21 06:25:17;;;;;;;;;;;10.40;66.80;;;5.74;100.00;95061.44;4974893;28;20340;-50
2023/11/21 06:27:51;;;;;;;;;;;10.40;66.80;;;5.77;100.00;95065.44;4980304;28;19932;-47
2023/11/21 06:30:19;;;;;;;;;;;10.40;66.80;;;5.78;100.00;95067.81;4981596;28;19916;-54
2023/11/21 06:32:45;;;;;;;;;;;10.40;66.90;;;5.80;100.00;95064.94;4988731;28;20382;-53
2023/11/21 06:35:13;;;;;;;;;;;10.40;66.90;;;5.79;100.00;95073.88;4978871;28;19910;-53
2023/11/21 06:37:39;;;;;;;;;;;10.40;66.90;;;5.79;100.00;95064.09;4954112;28;20331;-49
2023/11/21 06:40:06;;;;;;;;;;;10.30;66.80;;;5.83;100.00;95068.91;4980895;28;20309;-50
2023/11/21 06:42:33;;;;;;;;;;;10.40;66.90;;;5.82;100.00;95064.66;4975847;28;20008;-51
2023/11/21 06:44:59;;;;;;;;;;;10.40;67.00;;;5.80;100.00;95073.66;4971225;28;20279;-53
2023/11/21 06:47:25;;;;;;;;;;;10.40;67.00;;;5.78;100.00;95070.44;4982137;28;19924;-49
2023/11/21 06:49:52;;;;;;;;;;;10.40;67.00;;;5.80;100.00;95068.38;4980409;28;19948;-49
2023/11/21 06:52:19;;;;;;;;;;;10.40;67.00;;;5.81;100.00;95069.16;4971301;28;19914;-53
2023/11/21 06:54:47;;;;;;;;;;;10.40;67.00;;;5.79;100.00;95076.53;4966691;28;19956;-51
2023/11/21 06:57:13;;;;;;;;;;;10.40;67.00;;;5.77;100.00;95076.00;4971723;28;20261;-50
2023/11/21 06:59:39;;;;;;;;;;;10.40;67.00;;;5.78;100.00;95078.38;4955604;28;20003;-52
2023/11/21 07:02:07;;;;;;;;;;;10.40;67.00;;;5.80;100.00;95075.50;4976766;28;19971;-52
2023/11/21 07:04:34;;;;;;;;;;;10.40;67.00;;;5.82;100.00;95078.69;4977161;28;19949;-51
2023/11/21 07:07:00;;;;;;;;;;;10.50;67.10;;;5.85;100.00;95088.75;4977114;28;20690;-53
2023/11/21 07:09:26;;;;;;;;;;;10.50;67.20;;;5.85;100.00;95087.97;4977459;28;19964;-51
2023/11/21 07:11:52;;;;;;;;;;;10.50;67.20;;;5.83;100.00;95090.88;4975798;28;20385;-52
2023/11/21 07:14:19;;;;;;;;;;;10.50;67.10;;;5.84;100.00;95092.47;4967997;28;19917;-51
2023/11/21 07:16:46;;;;;;;;;;;10.50;67.10;;;5.86;100.00;95087.75;4970604;28;19914;-52
2023/11/21 07:19:12;;;;;;;;;;;10.50;67.10;;;5.88;100.00;95095.41;4975602;28;19917;-48
2023/11/21 07:21:39;;;;;;;;;;;10.50;67.10;;;5.91;100.00;95094.91;4989252;28;20015;-53
2023/11/21 07:24:07;;;;;;;;;;;10.60;67.10;;;5.91;100.00;95089.63;4963806;28;19956;-48
2023/11/21 07:26:34;;;;;;;;;;;10.60;67.10;;;5.90;100.00;95088.84;4972485;28;20316;-53
2023/11/21 07:29:02;;;;;;;;;;;10.60;67.10;;;5.87;100.00;95091.97;4964348;28;19913;-49
2023/11/21 07:31:29;;;;;;;;;;;10.60;67.10;;;5.90;100.00;95093.31;4969353;28;19918;-48
2023/11/21 07:33:58;;;;;;;;;;;10.70;67.10;;;5.90;100.00;95096.75;4985735;28;19914;-48
2023/11/21 07:36:24;;;;;;;;;;;10.70;67.10;;;5.91;100.00;95106.28;4977608;28;19917;-48
2023/11/21 07:38:51;;;;;;;;;;;10.70;67.10;;;5.97;100.00;95099.25;4988204;28;19917;-56
2023/11/21 07:41:18;;;;;;;;;;;10.70;67.00;;;6.00;100.00;95096.13;4980356;28;20369;-54
2023/11/21 07:43:46;;;;;;;;;;;10.80;67.10;;;6.00;100.00;95096.13;4968984;28;19909;-59
2023/11/21 07:46:12;;;;;;;;;;;10.80;67.10;;;5.95;100.00;95099.47;4974064;28;20332;-58
2023/11/21 07:48:41;;;;;;;;;;;10.80;67.00;;;6.01;100.00;95093.22;4981377;28;20291;-58
2023/11/21 07:51:08;;;;;;;;;;;10.80;67.00;;;6.07;100.00;95103.84;4978233;28;19916;-57
2023/11/21 07:53:35;;;;;;;;;;;10.90;67.10;;;6.08;100.00;95103.63;4967076;28;19913;-58
2023/11/21 07:56:06;;;;;;;;;;;10.90;67.10;;;6.09;100.00;95112.34;4978982;28;20240;-58
2023/11/21 07:58:35;;;;;;;;;;;10.90;67.20;;;6.11;100.00;95110.22;4972634;28;19956;-56
2023/11/21 08:01:02;;;;;;;;;;;10.90;67.10;;;6.16;100.00;95111.09;4977762;28;19917;-58
2023/11/21 08:03:29;;;;;;;;;;;10.90;67.10;;;6.24;100.00;95117.81;4980419;28;19941;-56
2023/11/21 08:05:57;;;;;;;;;;;11.00;67.20;;;6.28;100.00;95110.16;4977893;28;19945;-56
2023/11/21 08:08:23;;;;;;;;;;;11.20;67.30;;;6.35;100.00;95103.63;4980837;28;19909;-58
2023/11/21 08:10:56;;;;;;;;;;;11.20;67.20;;;6.47;100.00;95106.13;4958956;28;19917;-56
2023/11/21 08:13:23;;;;;;;;;;;11.40;67.10;;;6.58;100.00;95104.38;4986985;28;19909;-57
2023/11/21 08:15:49;;;;;;;;;;;11.50;67.00;;;6.59;100.00;95100.69;4977026;28;20330;-56
2023/11/21 08:18:16;;;;;;;;;;;11.70;66.90;;;6.73;100.00;95101.84;4985454;28;19909;-57
2023/11/21 08:20:42;;;;;;;;;;;11.90;66.80;;;6.93;100.00;95104.69;4964893;28;20055;-55
2023/11/21 08:23:08;;;;;;;;;;;12.10;66.70;;;7.08;100.00;95106.66;4979420;28;20012;-57
2023/11/21 08:25:34;;;;;;;;;;;12.30;66.60;;;7.12;100.00;95106.94;4976405;28;19910;-57
2023/11/21 08:28:01;;;;;;;;;;;12.40;66.40;;;7.16;100.00;95111.47;4982104;28;19991;-57
2023/11/21 08:30:29;;;;;;;;;;;12.50;66.40;;;7.20;100.00;95119.72;4971076;28;19936;-57
2023/11/21 08:32:58;;;;;;;;;;;12.60;66.30;;;7.27;100.00;95108.88;4980160;28;20343;-57
2023/11/21 08:35:24;;;;;;;;;;;12.70;66.20;;;7.25;100.00;95114.47;4984658;28;20016;-58
2023/11/21 08:37:53;;;;;;;;;;;12.70;66.00;;;7.32;100.00;95115.03;4967329;28;19909;-58
2023/11/21 08:40:21;;;;;;;;;;;12.70;66.00;;;7.36;100.00;95123.25;4985879;28;20359;-58
2023/11/21 08:42:47;;;;;;;;;;;12.60;66.00;;;7.22;100.00;95120.25;4975006;28;20047;-57
2023/11/21 08:45:15;;;;;;;;;;;12.50;66.00;;;7.07;100.00;95117.50;4976623;28;19949;-57
2023/11/21 08:47:40;;;;;;;;;;;12.50;65.90;;;7.08;100.00;95127.84;4970449;28;19909;-54
2023/11/21 08:50:08;;;;;;;;;;;12.30;65.80;;;7.15;100.00;95133.72;4983261;28;19920;-59
2023/11/21 08:52:36;;;;;;;;;;;12.30;66.00;;;7.11;100.00;95130.00;4975246;28;19932;-57
2023/11/21 08:55:07;;;;;;;;;;;12.20;66.10;;;7.10;100.00;95128.38;4981739;28;19969;-59
2023/11/21 08:57:37;;;;;;;;;;;12.20;66.20;;;7.06;100.00;95132.59;4981812;28;19909;-57
2023/11/21 09:00:07;;;;;;;;;;;12.10;66.10;;;7.08;100.00;95127.84;4966639;28;19913;-59
2023/11/21 09:02:37;;;;;;;;;;;12.10;66.30;;;7.08;100.00;95133.16;4987122;28;19914;-58
2023/11/21 09:05:05;;;;;;;;;;;12.10;66.30;;;7.09;100.00;95126.00;4968947;28;19957;-59
2023/11/21 09:07:31;;;;;;;;;;;12.10;66.40;;;7.08;100.00;95129.69;4977913;28;20284;-55
2023/11/21 09:09:56;;;;;;;;;;;12.10;66.40;;;7.07;100.00;95131.53;4976201;28;19980;-58
2023/11/21 09:12:24;;;;;;;;;;;12.10;66.50;;;7.08;100.00;95133.16;4978232;28;20375;-54
2023/11/21 09:14:50;;;;;;;;;;;12.10;66.50;;;7.13;100.00;95142.97;4982892;28;19920;-57
2023/11/21 09:17:17;;;;;;;;;;;12.10;66.50;;;7.14;100.00;95132.09;4965988;28;19917;-55
2023/11/21 09:19:45;;;;;;;;;;;12.10;66.50;;;7.13;100.00;95142.97;4977290;28;19925;-56
2023/11/21 09:22:11;;;;;;;;;;;12.20;66.60;;;7.12;100.00;95149.34;4981227;28;20603;-54
2023/11/21 09:24:37;;;;;;;;;;;12.20;66.50;;;7.18;100.00;95153.63;4987283;28;20016;-57
2023/11/21 09:27:05;;;;;;;;;;;12.20;66.50;;;7.18;100.00;95156.25;4983287;28;19920;-58
2023/11/21 09:29:31;;;;;;;;;;;12.20;66.60;;;7.13;100.00;95150.91;4969200;28;19972;-58
2023/11/21 09:32:01;;;;;;;;;;;12.20;66.50;;;7.15;100.00;95156.78;4982903;28;19913;-58
2023/11/21 09:34:27;;;;;;;;;;;12.20;66.50;;;7.16;100.00;95151.22;4973445;28;19910;-58
2023/11/21 09:36:53;;;;;;;;;;;12.20;66.60;;;7.12;100.00;95157.28;4981967;28;19917;-58
2023/11/21 09:39:19;;;;;;;;;;;12.20;66.60;;;7.10;100.00;95162.00;4989427;28;19909;-58
2023/11/21 09:42:05;;;;;;;;;;;12.20;66.50;;;7.12;100.00;95168.66;4988032;28;19921;-58
2023/11/21 09:44:47;;;;;;;;;;;12.10;66.50;;;7.13;100.00;95156.22;4981598;28;20072;-58
2023/11/21 09:47:16;;;;;;;;;;;12.10;66.50;;;7.13;100.00;95162.31;4976583;28;19910;-59
2023/11/21 09:49:49;;;;;;;;;;;12.10;66.50;;;7.15;100.00;95162.06;4982725;28;19929;-58
2023/11/21 09:52:53;;;;;;;;;;;12.10;66.70;;;7.18;100.00;95158.91;4983894;28;19909;-57
2023/11/21 09:55:21;;;;;;;;;;;12.20;66.70;;;7.21;100.00;95165.53;4956412;28;19909;-58
2023/11/21 09:57:49;;;;;;;;;;;12.20;66.70;;;7.22;100.00;95164.50;4980700;28;20392;-58
2023/11/21 10:00:17;;;;;;;;;;;12.20;66.60;;;7.21;100.00;95163.72;4972841;28;19949;-56
2023/11/21 10:02:44;;;;;;;;;;;12.20;66.60;;;7.18;100.00;95154.41;4985777;28;19909;-55
2023/11/21 10:05:10;;;;;;;;;;;12.10;66.50;;;7.18;100.00;95159.72;4981258;28;19913;-56
2023/11/21 10:07:37;;;;;;;;;;;12.10;66.60;;;7.13;100.00;95159.66;4981228;28;19916;-55
2023/11/21 10:10:05;;;;;;;;;;;12.10;66.60;;;7.14;100.00;95155.16;4967606;28;19909;-54
2023/11/21 10:12:33;;;;;;;;;;;12.10;66.50;;;7.14;100.00;95158.59;4971117;28;19921;-54
2023/11/21 10:15:02;;;;;;;;;;;12.00;66.60;;;7.16;100.00;95153.06;4983172;28;19921;-54
2023/11/21 10:17:39;;;;;;;;;;;12.00;66.60;;;7.11;100.00;95158.31;4981839;28;19914;-57
2023/11/21 10:20:11;;;;;;;;;;;11.90;66.60;;;6.99;100.00;95153.19;4960413;28;20319;-55
2023/11/21 10:22:41;;;;;;;;;;;11.90;66.70;;;6.89;100.00;95153.91;4970655;28;19920;-54
2023/11/21 10:25:08;;;;;;;;;;;11.90;66.70;;;6.90;100.00;95152.06;4964613;28;19952;-56
2023/11/21 10:27:41;;;;;;;;;;;11.80;67.50;;;6.91;100.00;95151.00;4980242;28;20380;-56
2023/11/21 10:30:11;;;;;;;;;;;11.80;66.90;;;6.91;100.00;95145.69;4983140;28;19983;-53
2023/11/21 10:32:40;;;;;;;;;;;11.70;66.90;;;6.95;100.00;95147.59;4982302;28;20008;-57
2023/11/21 10:35:09;;;;;;;;;;;11.70;67.00;;;6.95;100.00;95141.50;4966200;28;19917;-55
2023/11/21 10:37:39;;;;;;;;;;;11.70;67.10;;;6.94;100.00;95138.06;4981955;28;20382;-55
2023/11/21 10:40:11;;;;;;;;;;;11.70;67.20;;;6.96;100.00;95140.47;4981432;28;19910;-56
2023/11/21 10:42:41;;;;;;;;;;;11.70;67.20;;;6.90;100.00;95144.91;4971167;28;19975;-56
2023/11/21 10:45:12;;;;;;;;;;;11.70;67.20;;;6.87;100.00;95145.41;4982257;28;20387;-57
2023/11/21 10:47:40;;;;;;;;;;;11.70;67.20;;;6.91;100.00;95148.34;4977773;28;19909;-58
2023/11/21 10:50:10;;;;;;;;;;;11.70;67.30;;;6.92;100.00;95148.09;4981849;28;19936;-52
2023/11/21 10:52:43;;;;;;;;;;;11.70;67.30;;;6.94;100.00;95151.28;4989493;28;19971;-55
2023/11/21 10:55:23;;;;;;;;;;;11.70;67.40;;;6.96;100.00;95153.69;4974096;28;19914;-58
2023/11/21 10:57:53;;;;;;;;;;;11.70;67.30;;;7.02;100.00;95149.22;4987715;28;19910;-59
2023/11/21 11:00:23;;;;;;;;;;;11.80;67.40;;;7.00;100.00;95144.19;4971095;28;19920;-56
2023/11/21 11:02:55;;;;;;;;;;;11.90;67.50;;;6.99;100.00;95147.91;4988273;28;20463;-58
2023/11/21 11:05:24;;;;;;;;;;;11.90;67.30;;;7.06;100.00;95145.03;4988351;28;19910;-59
2023/11/21 11:08:04;;;;;;;;;;;12.00;67.30;;;7.14;100.00;95147.22;4969645;28;19909;-59
2023/11/21 11:10:31;;;;;;;;;;;12.10;67.30;;;7.18;100.00;95143.81;4970557;28;19921;-61
2023/11/21 11:12:58;;;;;;;;;;;12.10;67.20;;;7.24;100.00;95136.72;4969927;28;19910;-58
2023/11/21 11:15:26;;;;;;;;;;;12.20;67.20;;;7.28;100.00;95142.28;4972053;28;19913;-59
2023/11/21 11:17:57;;;;;;;;;;;12.30;67.20;;;7.31;100.00;95137.28;4972035;28;20390;-59
2023/11/21 11:20:37;;;;;;;;;;;12.40;67.30;;;7.37;100.00;95135.47;4982586;28;20376;-56